sensor_id;sensor_type;location;lat;lon;timestamp;pressure;altitude;pressure_sealevel;temperature;humidity
35655;BME280;21773;50.010;19.972;2023-04-24T00:02:00;97951.69;;;18.65;32.88
35655;BME280;21773;50.010;19.972;2023-04-24T00:05:04;97946.88;;;18.57;32.79
35655;BME280;21773;50.010;19.972;2023-04-24T00:08:08;97945.28;;;18.56;32.50
35655;BME280;21773;50.010;19.972;2023-04-24T00:11:12;97942.81;;;18.54;32.49
35655;BME280;21773;50.010;19.972;2023-04-24T00:14:16;97944.50;;;18.50;32.52
35655;BME280;21773;50.010;19.972;2023-04-24T00:17:20;97946.78;;;18.43;32.93
35655;BME280;21773;50.010;19.972;2023-04-24T00:20:23;97942.00;;;18.35;33.33
35655;BME280;21773;50.010;19.972;2023-04-24T00:23:27;97947.53;;;18.30;32.95
35655;BME280;21773;50.010;19.972;2023-04-24T00:26:30;97944.03;;;18.25;33.48
35655;BME280;21773;50.010;19.972;2023-04-24T00:29:35;97946.28;;;18.23;33.47
35655;BME280;21773;50.010;19.972;2023-04-24T00:32:39;97940.81;;;18.23;33.09
35655;BME280;21773;50.010;19.972;2023-04-24T00:35:42;97926.06;;;18.24;32.47
35655;BME280;21773;50.010;19.972;2023-04-24T00:38:45;97927.19;;;18.23;32.84
35655;BME280;21773;50.010;19.972;2023-04-24T00:41:49;97933.94;;;18.25;31.79
35655;BME280;21773;50.010;19.972;2023-04-24T00:44:56;97926.94;;;18.38;31.08
35655;BME280;21773;50.010;19.972;2023-04-24T00:48:00;97930.84;;;18.50;30.53
35655;BME280;21773;50.010;19.972;2023-04-24T00:51:04;97915.25;;;18.56;30.27
35655;BME280;21773;50.010;19.972;2023-04-24T00:54:07;97918.63;;;18.67;30.11
35655;BME280;21773;50.010;19.972;2023-04-24T00:57:13;97905.28;;;18.65;30.06
35655;BME280;21773;50.010;19.972;2023-04-24T01:00:18;97914.13;;;18.76;29.97
35655;BME280;21773;50.010;19.972;2023-04-24T01:03:25;97917.34;;;18.78;29.81
35655;BME280;21773;50.010;19.972;2023-04-24T01:06:30;97911.06;;;18.77;29.77
35655;BME280;21773;50.010;19.972;2023-04-24T01:09:34;97903.63;;;18.64;30.12
35655;BME280;21773;50.010;19.972;2023-04-24T01:12:38;97905.41;;;18.74;29.99
35655;BME280;21773;50.010;19.972;2023-04-24T01:15:43;97898.63;;;18.71;30.06
35655;BME280;21773;50.010;19.972;2023-04-24T01:18:46;97899.81;;;18.65;30.46
35655;BME280;21773;50.010;19.972;2023-04-24T01:21:53;97898.25;;;18.59;30.49
35655;BME280;21773;50.010;19.972;2023-04-24T01:24:58;97907.38;;;18.49;30.72
35655;BME280;21773;50.010;19.972;2023-04-24T01:28:04;97901.06;;;18.35;32.21
35655;BME280;21773;50.010;19.972;2023-04-24T01:31:08;97892.88;;;18.16;31.84
35655;BME280;21773;50.010;19.972;2023-04-24T01:34:12;97889.47;;;18.06;32.64
35655;BME280;21773;50.010;19.972;2023-04-24T01:37:15;97893.16;;;17.96;33.49
35655;BME280;21773;50.010;19.972;2023-04-24T01:40:20;97885.88;;;17.92;32.93
35655;BME280;21773;50.010;19.972;2023-04-24T01:43:23;97878.69;;;17.77;33.50
35655;BME280;21773;50.010;19.972;2023-04-24T01:46:27;97885.34;;;17.90;33.37
35655;BME280;21773;50.010;19.972;2023-04-24T01:49:32;97888.59;;;17.92;33.12
35655;BME280;21773;50.010;19.972;2023-04-24T01:52:36;97870.94;;;17.84;32.52
35655;BME280;21773;50.010;19.972;2023-04-24T01:55:40;97872.50;;;17.90;32.84
35655;BME280;21773;50.010;19.972;2023-04-24T01:58:44;97867.22;;;17.99;31.96
35655;BME280;21773;50.010;19.972;2023-04-24T02:01:47;97865.53;;;18.03;32.10
35655;BME280;21773;50.010;19.972;2023-04-24T02:04:53;97864.78;;;17.97;31.94
35655;BME280;21773;50.010;19.972;2023-04-24T02:07:56;97850.69;;;17.90;32.33
35655;BME280;21773;50.010;19.972;2023-04-24T02:11:01;97855.34;;;17.90;32.66
35655;BME280;21773;50.010;19.972;2023-04-24T02:14:05;97859.84;;;17.81;32.75
35655;BME280;21773;50.010;19.972;2023-04-24T02:17:09;97850.63;;;17.77;32.55
35655;BME280;21773;50.010;19.972;2023-04-24T02:20:15;97851.22;;;17.73;32.82
35655;BME280;21773;50.010;19.972;2023-04-24T02:23:19;97844.22;;;17.67;33.01
35655;BME280;21773;50.010;19.972;2023-04-24T02:26:24;97837.66;;;17.68;32.47
35655;BME280;21773;50.010;19.972;2023-04-24T02:29:28;97838.16;;;17.70;32.86
35655;BME280;21773;50.010;19.972;2023-04-24T02:32:31;97829.22;;;17.65;32.90
35655;BME280;21773;50.010;19.972;2023-04-24T02:35:36;97827.31;;;17.65;32.48
35655;BME280;21773;50.010;19.972;2023-04-24T02:38:39;97824.91;;;17.64;32.63
35655;BME280;21773;50.010;19.972;2023-04-24T02:41:44;97821.88;;;17.65;32.28
35655;BME280;21773;50.010;19.972;2023-04-24T02:44:47;97821.06;;;17.65;32.28
35655;BME280;21773;50.010;19.972;2023-04-24T02:47:52;97821.47;;;17.53;33.61
35655;BME280;21773;50.010;19.972;2023-04-24T02:50:55;97820.31;;;17.36;34.06
35655;BME280;21773;50.010;19.972;2023-04-24T02:53:59;97806.22;;;17.10;34.48
35655;BME280;21773;50.010;19.972;2023-04-24T02:57:04;97811.34;;;17.11;33.24
35655;BME280;21773;50.010;19.972;2023-04-24T03:00:09;97810.19;;;17.17;32.69
35655;BME280;21773;50.010;19.972;2023-04-24T03:03:13;97801.38;;;17.25;33.26
35655;BME280;21773;50.010;19.972;2023-04-24T03:06:17;97816.56;;;17.31;32.79
35655;BME280;21773;50.010;19.972;2023-04-24T03:09:20;97810.22;;;17.36;32.63
35655;BME280;21773;50.010;19.972;2023-04-24T03:12:25;97793.91;;;17.12;33.38
35655;BME280;21773;50.010;19.972;2023-04-24T03:15:29;97811.22;;;17.21;33.05
35655;BME280;21773;50.010;19.972;2023-04-24T03:18:32;97820.84;;;17.14;34.39
35655;BME280;21773;50.010;19.972;2023-04-24T03:21:37;97822.88;;;17.03;34.37
35655;BME280;21773;50.010;19.972;2023-04-24T03:24:42;97811.81;;;16.95;34.71
35655;BME280;21773;50.010;19.972;2023-04-24T03:27:51;97795.91;;;16.78;35.00
35655;BME280;21773;50.010;19.972;2023-04-24T03:31:08;97809.47;;;16.83;34.53
35655;BME280;21773;50.010;19.972;2023-04-24T03:34:12;97802.41;;;16.82;35.15
35655;BME280;21773;50.010;19.972;2023-04-24T03:37:16;97803.03;;;16.74;35.43
35655;BME280;21773;50.010;19.972;2023-04-24T03:40:34;97803.13;;;16.64;35.78
35655;BME280;21773;50.010;19.972;2023-04-24T03:43:47;97804.53;;;16.61;36.00
35655;BME280;21773;50.010;19.972;2023-04-24T03:46:50;97798.00;;;16.57;35.85
35655;BME280;21773;50.010;19.972;2023-04-24T03:49:56;97807.50;;;16.65;35.98
35655;BME280;21773;50.010;19.972;2023-04-24T03:52:59;97807.13;;;16.71;35.61
35655;BME280;21773;50.010;19.972;2023-04-24T03:56:13;97806.69;;;16.64;36.86
35655;BME280;21773;50.010;19.972;2023-04-24T03:59:18;97806.16;;;16.57;36.50
35655;BME280;21773;50.010;19.972;2023-04-24T04:02:32;97802.97;;;16.50;36.96
35655;BME280;21773;50.010;19.972;2023-04-24T04:05:35;97802.16;;;16.50;37.13
35655;BME280;21773;50.010;19.972;2023-04-24T04:08:39;97785.94;;;16.39;35.97
35655;BME280;21773;50.010;19.972;2023-04-24T04:11:42;97812.97;;;16.60;36.29
35655;BME280;21773;50.010;19.972;2023-04-24T04:14:48;97814.06;;;16.59;36.95
35655;BME280;21773;50.010;19.972;2023-04-24T04:17:51;97812.41;;;16.58;37.10
35655;BME280;21773;50.010;19.972;2023-04-24T04:20:55;97807.31;;;16.51;37.07
35655;BME280;21773;50.010;19.972;2023-04-24T04:23:58;97807.56;;;16.55;36.82
35655;BME280;21773;50.010;19.972;2023-04-24T04:27:08;97806.13;;;16.62;37.51
35655;BME280;21773;50.010;19.972;2023-04-24T04:30:34;97805.28;;;16.67;37.93
35655;BME280;21773;50.010;19.972;2023-04-24T04:33:40;97796.78;;;16.73;38.13
35655;BME280;21773;50.010;19.972;2023-04-24T04:36:44;97802.06;;;16.88;36.76
35655;BME280;21773;50.010;19.972;2023-04-24T04:39:59;97790.78;;;17.00;36.40
35655;BME280;21773;50.010;19.972;2023-04-24T04:43:08;97801.97;;;17.22;37.19
35655;BME280;21773;50.010;19.972;2023-04-24T04:46:19;97791.53;;;17.29;37.03
35655;BME280;21773;50.010;19.972;2023-04-24T04:49:49;97800.91;;;17.42;37.28
35655;BME280;21773;50.010;19.972;2023-04-24T04:52:57;97794.72;;;17.55;37.30
35655;BME280;21773;50.010;19.972;2023-04-24T04:56:06;97794.84;;;17.69;36.77
35655;BME280;21773;50.010;19.972;2023-04-24T04:59:19;97797.88;;;17.86;36.91
35655;BME280;21773;50.010;19.972;2023-04-24T05:02:27;97798.13;;;18.03;36.88
35655;BME280;21773;50.010;19.972;2023-04-24T05:05:31;97792.16;;;18.20;36.82
35655;BME280;21773;50.010;19.972;2023-04-24T05:08:34;97796.75;;;18.38;36.46
35655;BME280;21773;50.010;19.972;2023-04-24T05:11:40;97799.78;;;18.55;36.19
35655;BME280;21773;50.010;19.972;2023-04-24T05:14:43;97789.09;;;18.73;35.85
35655;BME280;21773;50.010;19.972;2023-04-24T05:17:48;97794.00;;;18.89;35.34
35655;BME280;21773;50.010;19.972;2023-04-24T05:20:52;97792.28;;;19.07;35.48
35655;BME280;21773;50.010;19.972;2023-04-24T05:23:55;97797.13;;;19.24;35.61
35655;BME280;21773;50.010;19.972;2023-04-24T05:27:18;97783.16;;;19.39;35.49
35655;BME280;21773;50.010;19.972;2023-04-24T05:30:23;97789.94;;;19.55;35.72
35655;BME280;21773;50.010;19.972;2023-04-24T05:33:30;97783.66;;;19.68;35.89
35655;BME280;21773;50.010;19.972;2023-04-24T05:36:33;97780.06;;;19.81;35.37
35655;BME280;21773;50.010;19.972;2023-04-24T05:39:37;97780.84;;;19.96;35.04
35655;BME280;21773;50.010;19.972;2023-04-24T05:42:40;97782.59;;;20.14;34.59
35655;BME280;21773;50.010;19.972;2023-04-24T05:45:44;97775.44;;;20.26;34.53
35655;BME280;21773;50.010;19.972;2023-04-24T05:48:49;97775.91;;;20.42;34.24
35655;BME280;21773;50.010;19.972;2023-04-24T05:51:52;97775.03;;;20.55;33.96
35655;BME280;21773;50.010;19.972;2023-04-24T05:54:56;97778.34;;;20.74;33.69
35655;BME280;21773;50.010;19.972;2023-04-24T05:58:05;97778.56;;;20.87;33.24
35655;BME280;21773;50.010;19.972;2023-04-24T06:01:10;97780.88;;;21.02;33.50
35655;BME280;21773;50.010;19.972;2023-04-24T06:04:15;97781.13;;;21.14;32.91
35655;BME280;21773;50.010;19.972;2023-04-24T06:07:19;97780.38;;;21.31;32.26
35655;BME280;21773;50.010;19.972;2023-04-24T06:10:23;97784.78;;;21.49;32.25
35655;BME280;21773;50.010;19.972;2023-04-24T06:13:26;97773.38;;;21.64;32.11
35655;BME280;21773;50.010;19.972;2023-04-24T06:17:08;97780.66;;;21.86;33.15
35655;BME280;21773;50.010;19.972;2023-04-24T06:20:16;97771.00;;;22.06;32.13
35655;BME280;21773;50.010;19.972;2023-04-24T06:23:19;97774.06;;;22.21;32.66
35655;BME280;21773;50.010;19.972;2023-04-24T06:26:22;97749.34;;;22.30;31.56
35655;BME280;21773;50.010;19.972;2023-04-24T06:29:26;97758.66;;;22.55;31.42
35655;BME280;21773;50.010;19.972;2023-04-24T06:32:30;97758.81;;;22.75;31.20
35655;BME280;21773;50.010;19.972;2023-04-24T06:35:35;97747.75;;;22.93;31.74
35655;BME280;21773;50.010;19.972;2023-04-24T06:38:40;97757.38;;;23.07;30.74
35655;BME280;21773;50.010;19.972;2023-04-24T06:41:43;97755.44;;;23.37;30.98
35655;BME280;21773;50.010;19.972;2023-04-24T06:44:53;97752.38;;;23.68;30.46
35655;BME280;21773;50.010;19.972;2023-04-24T06:47:56;97733.78;;;23.86;28.47
35655;BME280;21773;50.010;19.972;2023-04-24T06:51:01;97737.94;;;24.12;28.88
35655;BME280;21773;50.010;19.972;2023-04-24T06:54:05;97743.78;;;24.32;28.30
35655;BME280;21773;50.010;19.972;2023-04-24T06:57:08;97742.03;;;24.60;28.82
35655;BME280;21773;50.010;19.972;2023-04-24T07:00:13;97749.66;;;24.75;28.17
35655;BME280;21773;50.010;19.972;2023-04-24T07:03:16;97748.31;;;24.93;27.56
35655;BME280;21773;50.010;19.972;2023-04-24T07:06:21;97740.88;;;25.06;28.33
35655;BME280;21773;50.010;19.972;2023-04-24T07:09:25;97741.94;;;25.26;27.75
35655;BME280;21773;50.010;19.972;2023-04-24T07:12:29;97741.47;;;25.36;26.07
35655;BME280;21773;50.010;19.972;2023-04-24T07:15:32;97733.06;;;25.44;25.60
35655;BME280;21773;50.010;19.972;2023-04-24T07:18:35;97726.03;;;25.47;24.18
35655;BME280;21773;50.010;19.972;2023-04-24T07:21:40;97725.81;;;25.40;22.37
35655;BME280;21773;50.010;19.972;2023-04-24T07:24:43;97726.97;;;25.27;22.42
35655;BME280;21773;50.010;19.972;2023-04-24T07:27:47;97717.19;;;25.29;23.34
35655;BME280;21773;50.010;19.972;2023-04-24T07:30:51;97719.13;;;25.53;22.66
35655;BME280;21773;50.010;19.972;2023-04-24T07:33:56;97717.16;;;25.78;21.72
35655;BME280;21773;50.010;19.972;2023-04-24T07:37:01;97713.41;;;25.98;21.29
35655;BME280;21773;50.010;19.972;2023-04-24T07:40:06;97720.97;;;25.61;21.23
35655;BME280;21773;50.010;19.972;2023-04-24T07:43:09;97713.56;;;25.90;22.22
35655;BME280;21773;50.010;19.972;2023-04-24T07:46:13;97714.00;;;25.92;21.22
35655;BME280;21773;50.010;19.972;2023-04-24T07:49:16;97709.00;;;25.69;20.66
35655;BME280;21773;50.010;19.972;2023-04-24T07:52:22;97711.06;;;25.72;22.20
35655;BME280;21773;50.010;19.972;2023-04-24T07:55:26;97712.59;;;25.58;22.00
35655;BME280;21773;50.010;19.972;2023-04-24T07:58:29;97718.91;;;25.58;22.22
35655;BME280;21773;50.010;19.972;2023-04-24T08:01:32;97707.47;;;25.84;22.46
35655;BME280;21773;50.010;19.972;2023-04-24T08:04:36;97705.22;;;26.02;21.52
35655;BME280;21773;50.010;19.972;2023-04-24T08:07:41;97697.28;;;26.00;21.36
35655;BME280;21773;50.010;19.972;2023-04-24T08:10:45;97686.69;;;26.30;20.36
35655;BME280;21773;50.010;19.972;2023-04-24T08:13:48;97689.16;;;26.47;21.33
35655;BME280;21773;50.010;19.972;2023-04-24T08:16:53;97683.66;;;26.94;20.68
35655;BME280;21773;50.010;19.972;2023-04-24T08:19:57;97694.97;;;27.21;18.82
35655;BME280;21773;50.010;19.972;2023-04-24T08:23:06;97687.69;;;27.63;20.19
35655;BME280;21773;50.010;19.972;2023-04-24T08:26:09;97681.00;;;27.83;19.15
35655;BME280;21773;50.010;19.972;2023-04-24T08:29:13;97691.91;;;27.41;19.05
35655;BME280;21773;50.010;19.972;2023-04-24T08:32:17;97684.50;;;27.80;19.90
35655;BME280;21773;50.010;19.972;2023-04-24T08:35:20;97678.28;;;28.06;18.83
35655;BME280;21773;50.010;19.972;2023-04-24T08:38:26;97684.94;;;28.21;18.08
35655;BME280;21773;50.010;19.972;2023-04-24T08:41:30;97679.97;;;28.30;18.67
35655;BME280;21773;50.010;19.972;2023-04-24T08:44:35;97677.50;;;28.67;20.01
35655;BME280;21773;50.010;19.972;2023-04-24T08:47:40;97675.72;;;29.01;17.99
35655;BME280;21773;50.010;19.972;2023-04-24T08:50:44;97676.69;;;29.12;17.21
35655;BME280;21773;50.010;19.972;2023-04-24T08:53:49;97654.41;;;29.08;17.61
35655;BME280;21773;50.010;19.972;2023-04-24T08:56:59;97669.75;;;29.25;17.94
35655;BME280;21773;50.010;19.972;2023-04-24T09:00:04;97668.72;;;29.33;17.96
35655;BME280;21773;50.010;19.972;2023-04-24T09:03:09;97667.50;;;29.31;17.40
35655;BME280;21773;50.010;19.972;2023-04-24T09:06:14;97661.81;;;29.50;17.08
35655;BME280;21773;50.010;19.972;2023-04-24T09:09:21;97665.00;;;29.52;17.92
35655;BME280;21773;50.010;19.972;2023-04-24T09:12:25;97670.31;;;29.34;17.49
35655;BME280;21773;50.010;19.972;2023-04-24T09:15:29;97660.19;;;29.45;17.01
35655;BME280;21773;50.010;19.972;2023-04-24T09:18:32;97656.56;;;29.71;17.01
35655;BME280;21773;50.010;19.972;2023-04-24T09:21:37;97658.47;;;29.67;17.49
35655;BME280;21773;50.010;19.972;2023-04-24T09:24:42;97649.00;;;30.01;16.50
35655;BME280;21773;50.010;19.972;2023-04-24T09:27:45;97635.56;;;30.03;17.02
35655;BME280;21773;50.010;19.972;2023-04-24T09:31:02;97655.66;;;30.27;17.44
35655;BME280;21773;50.010;19.972;2023-04-24T09:34:05;97655.38;;;30.02;16.29
35655;BME280;21773;50.010;19.972;2023-04-24T09:37:09;97652.09;;;29.93;16.04
35655;BME280;21773;50.010;19.972;2023-04-24T09:40:16;97639.00;;;29.93;15.48
35655;BME280;21773;50.010;19.972;2023-04-24T09:43:19;97636.31;;;30.37;16.62
35655;BME280;21773;50.010;19.972;2023-04-24T09:46:29;97615.16;;;30.66;16.03
35655;BME280;21773;50.010;19.972;2023-04-24T09:49:33;97630.09;;;30.98;15.19
35655;BME280;21773;50.010;19.972;2023-04-24T09:52:43;97635.66;;;31.46;14.85
35655;BME280;21773;50.010;19.972;2023-04-24T09:55:49;97630.03;;;31.39;14.94
35655;BME280;21773;50.010;19.972;2023-04-24T09:58:52;97620.63;;;31.61;14.85
35655;BME280;21773;50.010;19.972;2023-04-24T10:01:56;97621.31;;;31.48;14.65
35655;BME280;21773;50.010;19.972;2023-04-24T10:05:00;97622.81;;;30.80;14.26
35655;BME280;21773;50.010;19.972;2023-04-24T10:08:06;97607.78;;;30.88;16.29
35655;BME280;21773;50.010;19.972;2023-04-24T10:11:11;97611.63;;;31.20;15.06
35655;BME280;21773;50.010;19.972;2023-04-24T10:14:16;97606.34;;;31.05;15.61
35655;BME280;21773;50.010;19.972;2023-04-24T10:17:20;97606.34;;;30.61;15.06
35655;BME280;21773;50.010;19.972;2023-04-24T10:20:28;97615.22;;;30.73;15.84
35655;BME280;21773;50.010;19.972;2023-04-24T10:23:32;97600.69;;;30.97;15.69
35655;BME280;21773;50.010;19.972;2023-04-24T10:26:38;97606.94;;;31.38;15.31
35655;BME280;21773;50.010;19.972;2023-04-24T10:29:43;97602.84;;;31.91;16.20
35655;BME280;21773;50.010;19.972;2023-04-24T10:32:46;97606.94;;;32.25;14.46
35655;BME280;21773;50.010;19.972;2023-04-24T10:35:50;97588.63;;;32.56;14.39
35655;BME280;21773;50.010;19.972;2023-04-24T10:38:56;97585.09;;;32.87;14.80
35655;BME280;21773;50.010;19.972;2023-04-24T10:42:14;97586.66;;;33.02;15.25
35655;BME280;21773;50.010;19.972;2023-04-24T10:45:18;97588.66;;;33.02;14.44
35655;BME280;21773;50.010;19.972;2023-04-24T10:48:26;97585.47;;;33.21;14.42
35655;BME280;21773;50.010;19.972;2023-04-24T10:51:44;97573.94;;;32.87;13.56
35655;BME280;21773;50.010;19.972;2023-04-24T10:54:48;97570.31;;;32.48;14.36
35655;BME280;21773;50.010;19.972;2023-04-24T10:58:03;97574.59;;;31.99;14.45
35655;BME280;21773;50.010;19.972;2023-04-24T11:01:07;97570.16;;;31.80;15.38
35655;BME280;21773;50.010;19.972;2023-04-24T11:04:10;97573.34;;;31.79;15.91
35655;BME280;21773;50.010;19.972;2023-04-24T11:07:14;97573.38;;;31.86;15.31
35655;BME280;21773;50.010;19.972;2023-04-24T11:10:25;97567.78;;;31.86;15.36
35655;BME280;21773;50.010;19.972;2023-04-24T11:17:07;97568.25;;;32.06;14.63
35655;BME280;21773;50.010;19.972;2023-04-24T11:20:15;97569.81;;;32.07;14.49
35655;BME280;21773;50.010;19.972;2023-04-24T11:23:35;97565.09;;;32.18;15.28
35655;BME280;21773;50.010;19.972;2023-04-24T11:26:39;97561.13;;;32.33;16.10
35655;BME280;21773;50.010;19.972;2023-04-24T11:29:46;97558.75;;;32.28;14.46
35655;BME280;21773;50.010;19.972;2023-04-24T11:32:51;97555.47;;;32.01;14.24
35655;BME280;21773;50.010;19.972;2023-04-24T11:35:54;97555.44;;;31.83;14.61
35655;BME280;21773;50.010;19.972;2023-04-24T11:38:58;97558.47;;;31.54;14.66
35655;BME280;21773;50.010;19.972;2023-04-24T11:42:02;97552.09;;;31.46;14.99
35655;BME280;21773;50.010;19.972;2023-04-24T11:45:10;97552.03;;;31.32;15.57
35655;BME280;21773;50.010;19.972;2023-04-24T11:48:19;97547.94;;;31.12;16.37
35655;BME280;21773;50.010;19.972;2023-04-24T11:51:25;97545.91;;;31.05;16.04
35655;BME280;21773;50.010;19.972;2023-04-24T11:54:37;97545.41;;;30.45;15.25
35655;BME280;21773;50.010;19.972;2023-04-24T11:57:42;97535.66;;;29.84;15.89
35655;BME280;21773;50.010;19.972;2023-04-24T12:00:56;97528.19;;;30.29;16.62
35655;BME280;21773;50.010;19.972;2023-04-24T12:04:00;97532.50;;;30.67;15.07
35655;BME280;21773;50.010;19.972;2023-04-24T12:07:04;97513.72;;;31.08;15.81
35655;BME280;21773;50.010;19.972;2023-04-24T12:10:08;97526.31;;;31.67;15.89
35655;BME280;21773;50.010;19.972;2023-04-24T12:13:12;97522.00;;;31.91;15.64
35655;BME280;21773;50.010;19.972;2023-04-24T12:16:16;97515.22;;;31.92;14.64
35655;BME280;21773;50.010;19.972;2023-04-24T12:19:22;97515.63;;;31.97;15.84
35655;BME280;21773;50.010;19.972;2023-04-24T12:22:26;97522.09;;;32.19;16.22
35655;BME280;21773;50.010;19.972;2023-04-24T12:25:31;97513.72;;;32.15;14.97
35655;BME280;21773;50.010;19.972;2023-04-24T12:28:36;97512.44;;;31.81;15.32
35655;BME280;21773;50.010;19.972;2023-04-24T12:31:40;97512.28;;;31.42;15.63
35655;BME280;21773;50.010;19.972;2023-04-24T12:34:45;97504.22;;;31.16;15.36
35655;BME280;21773;50.010;19.972;2023-04-24T12:37:48;97513.41;;;30.65;15.40
35655;BME280;21773;50.010;19.972;2023-04-24T12:41:02;97512.97;;;30.16;15.31
35655;BME280;21773;50.010;19.972;2023-04-24T12:44:10;97506.63;;;29.78;15.90
35655;BME280;21773;50.010;19.972;2023-04-24T12:47:14;97524.09;;;29.42;19.56
35655;BME280;21773;50.010;19.972;2023-04-24T12:50:19;97520.72;;;28.99;20.47
35655;BME280;21773;50.010;19.972;2023-04-24T12:53:22;97528.09;;;28.65;21.47
35655;BME280;21773;50.010;19.972;2023-04-24T12:56:28;97526.19;;;28.20;21.92
35655;BME280;21773;50.010;19.972;2023-04-24T12:59:32;97526.44;;;27.70;22.81
35655;BME280;21773;50.010;19.972;2023-04-24T13:02:35;97532.16;;;27.23;23.21
35655;BME280;21773;50.010;19.972;2023-04-24T13:05:42;97536.00;;;26.83;24.64
35655;BME280;21773;50.010;19.972;2023-04-24T13:08:46;97532.09;;;26.34;25.62
35655;BME280;21773;50.010;19.972;2023-04-24T13:11:49;97536.13;;;25.93;25.12
35655;BME280;21773;50.010;19.972;2023-04-24T13:14:53;97535.84;;;25.54;25.70
35655;BME280;21773;50.010;19.972;2023-04-24T13:17:57;97543.06;;;25.31;25.85
35655;BME280;21773;50.010;19.972;2023-04-24T13:21:03;97540.88;;;24.96;26.80
35655;BME280;21773;50.010;19.972;2023-04-24T13:24:06;97540.88;;;24.72;26.94
35655;BME280;21773;50.010;19.972;2023-04-24T13:27:10;97547.88;;;24.45;27.40
35655;BME280;21773;50.010;19.972;2023-04-24T13:30:13;97550.06;;;24.40;27.35
35655;BME280;21773;50.010;19.972;2023-04-24T13:33:17;97543.19;;;24.22;27.75
35655;BME280;21773;50.010;19.972;2023-04-24T13:36:22;97547.97;;;24.12;28.21
35655;BME280;21773;50.010;19.972;2023-04-24T13:39:25;97556.22;;;24.12;28.36
35655;BME280;21773;50.010;19.972;2023-04-24T13:42:29;97566.28;;;23.96;28.83
35655;BME280;21773;50.010;19.972;2023-04-24T13:45:32;97557.94;;;23.72;28.54
35655;BME280;21773;50.010;19.972;2023-04-24T13:48:36;97561.81;;;23.38;28.82
35655;BME280;21773;50.010;19.972;2023-04-24T13:51:41;97556.06;;;23.10;29.32
35655;BME280;21773;50.010;19.972;2023-04-24T13:54:45;97567.16;;;22.93;30.00
35655;BME280;21773;50.010;19.972;2023-04-24T13:57:48;97563.47;;;22.89;29.94
35655;BME280;21773;50.010;19.972;2023-04-24T14:00:52;97579.63;;;22.61;30.33
35655;BME280;21773;50.010;19.972;2023-04-24T14:03:55;97566.59;;;22.50;30.77
35655;BME280;21773;50.010;19.972;2023-04-24T14:07:00;97572.50;;;22.31;30.41
35655;BME280;21773;50.010;19.972;2023-04-24T14:10:04;97568.22;;;22.04;31.60
35655;BME280;21773;50.010;19.972;2023-04-24T14:13:08;97592.63;;;21.97;31.53
35655;BME280;21773;50.010;19.972;2023-04-24T14:16:12;97605.38;;;21.93;31.89
35655;BME280;21773;50.010;19.972;2023-04-24T14:19:16;97579.09;;;21.66;32.96
35655;BME280;21773;50.010;19.972;2023-04-24T14:22:21;97567.50;;;21.69;32.28
35655;BME280;21773;50.010;19.972;2023-04-24T14:25:24;97582.13;;;21.90;32.29
35655;BME280;21773;50.010;19.972;2023-04-24T14:28:28;97578.09;;;21.88;32.79
35655;BME280;21773;50.010;19.972;2023-04-24T14:31:31;97571.97;;;21.82;32.67
35655;BME280;21773;50.010;19.972;2023-04-24T14:34:34;97593.13;;;21.99;32.89
35655;BME280;21773;50.010;19.972;2023-04-24T14:37:39;97602.19;;;21.74;33.21
35655;BME280;21773;50.010;19.972;2023-04-24T14:40:43;97591.84;;;21.62;33.27
35655;BME280;21773;50.010;19.972;2023-04-24T14:44:06;97585.41;;;21.67;33.34
35655;BME280;21773;50.010;19.972;2023-04-24T14:47:09;97585.59;;;21.53;34.25
35655;BME280;21773;50.010;19.972;2023-04-24T14:50:13;97591.69;;;21.67;33.38
35655;BME280;21773;50.010;19.972;2023-04-24T14:53:18;97588.81;;;21.64;33.77
35655;BME280;21773;50.010;19.972;2023-04-24T14:56:21;97589.78;;;21.42;33.64
35655;BME280;21773;50.010;19.972;2023-04-24T14:59:24;97586.72;;;21.35;34.60
35655;BME280;21773;50.010;19.972;2023-04-24T15:02:28;97592.50;;;21.42;34.73
35655;BME280;21773;50.010;19.972;2023-04-24T15:05:31;97592.22;;;21.35;34.39
35655;BME280;21773;50.010;19.972;2023-04-24T15:08:37;97596.50;;;21.01;35.36
35655;BME280;21773;50.010;19.972;2023-04-24T15:11:40;97594.91;;;21.00;35.52
35655;BME280;21773;50.010;19.972;2023-04-24T15:14:43;97587.47;;;20.92;35.42
35655;BME280;21773;50.010;19.972;2023-04-24T15:17:47;97595.34;;;20.85;36.16
35655;BME280;21773;50.010;19.972;2023-04-24T15:20:50;97595.66;;;20.84;36.21
35655;BME280;21773;50.010;19.972;2023-04-24T15:23:55;97596.78;;;20.83;36.55
35655;BME280;21773;50.010;19.972;2023-04-24T15:26:58;97595.00;;;20.69;36.82
35655;BME280;21773;50.010;19.972;2023-04-24T15:30:04;97608.19;;;20.67;36.94
35655;BME280;21773;50.010;19.972;2023-04-24T15:33:07;97604.66;;;20.67;36.86
35655;BME280;21773;50.010;19.972;2023-04-24T15:36:10;97597.44;;;20.80;36.91
35655;BME280;21773;50.010;19.972;2023-04-24T15:39:15;97595.34;;;20.85;36.86
35655;BME280;21773;50.010;19.972;2023-04-24T15:42:19;97596.78;;;20.83;37.04
35655;BME280;21773;50.010;19.972;2023-04-24T15:45:22;97592.28;;;20.87;37.33
35655;BME280;21773;50.010;19.972;2023-04-24T15:48:27;97589.72;;;20.82;37.75
35655;BME280;21773;50.010;19.972;2023-04-24T15:51:30;97587.47;;;20.92;38.12
35655;BME280;21773;50.010;19.972;2023-04-24T15:54:35;97595.00;;;20.78;37.42
35655;BME280;21773;50.010;19.972;2023-04-24T15:57:40;97598.41;;;20.84;37.59
35655;BME280;21773;50.010;19.972;2023-04-24T16:00:43;97595.16;;;20.73;37.94
35655;BME280;21773;50.010;19.972;2023-04-24T16:03:47;97604.81;;;20.70;38.31
35655;BME280;21773;50.010;19.972;2023-04-24T16:06:51;97606.25;;;20.68;37.74
35655;BME280;21773;50.010;19.972;2023-04-24T16:09:56;97614.25;;;20.47;38.29
35655;BME280;21773;50.010;19.972;2023-04-24T16:12:59;97616.34;;;20.42;38.28